Time;durP1;ratioP1;P1;durP2;ratioP2;P2;SDS_P1;SDS_P2;PMS_P1;PMS_P2;Temp;Humidity;BMP_temperature;BMP_pressure;BME280_temperature;BME280_humidity;BME280_pressure;Samples;Min_cycle;Max_cycle;Signal;HPM_P1;HPM_P2
2023/09/09 00:01:29;;;;;;;7.30;6.22;;;435.30;2355.20;;;;;;5088917;28;20052;-58
2023/09/09 00:03:56;;;;;;;7.22;6.18;;;435.30;2355.20;;;;;;5089149;28;20046;-58
2023/09/09 00:06:22;;;;;;;10.95;6.07;;;435.40;2355.20;;;;;;5089686;28;20480;-58
2023/09/09 00:08:48;;;;;;;8.85;6.57;;;435.40;2355.20;;;;;;5089656;28;20031;-58
2023/09/09 00:11:14;;;;;;;10.70;6.57;;;435.30;2355.20;;;;;;5089301;28;20040;-59
2023/09/09 00:13:39;;;;;;;12.48;7.43;;;435.20;2355.20;;;;;;5089435;28;20469;-59
2023/09/09 00:16:06;;;;;;;9.80;6.75;;;435.30;2355.20;;;;;;5089357;28;20023;-58
2023/09/09 00:18:31;;;;;;;10.55;7.82;;;435.40;2355.20;;;;;;5089144;28;20111;-59
2023/09/09 00:20:57;;;;;;;9.20;6.50;;;435.40;2355.20;;;;;;5089069;28;20574;-58
2023/09/09 00:23:23;;;;;;;7.57;6.25;;;435.40;2355.20;;;;;;5089083;28;20085;-59
2023/09/09 00:25:49;;;;;;;7.40;6.50;;;435.30;2355.20;;;;;;5088847;28;20089;-58
2023/09/09 00:28:16;;;;;;;9.90;7.10;;;435.30;2355.20;;;;;;5089226;28;20035;-58
2023/09/09 00:30:42;;;;;;;10.70;6.22;;;435.20;2355.20;;;;;;5088796;28;20091;-59
2023/09/09 00:33:08;;;;;;;9.00;6.53;;;435.20;2355.20;;;;;;5089334;28;20063;-58
2023/09/09 00:35:40;;;;;;;7.95;5.85;;;435.30;2355.20;;;;;;5089148;28;20012;-58
2023/09/09 00:38:08;;;;;;;7.63;6.80;;;435.30;2355.20;;;;;;5089239;28;20036;-58
2023/09/09 00:40:33;;;;;;;9.85;6.45;;;435.20;2355.20;;;;;;5088997;28;20019;-58
2023/09/09 00:42:59;;;;;;;7.95;6.10;;;435.20;2355.20;;;;;;5088750;28;20364;-59
2023/09/09 00:45:28;;;;;;;8.45;6.47;;;435.20;2355.20;;;;;;5088909;28;20028;-58
2023/09/09 00:47:55;;;;;;;9.90;6.78;;;410.50;2355.20;;;;;;5088455;28;20016;-59
2023/09/09 00:50:23;;;;;;;8.38;6.88;;;410.40;2355.20;;;;;;5088485;28;20020;-58
2023/09/09 00:52:49;;;;;;;8.80;7.22;;;410.40;2355.20;;;;;;5076710;28;20044;-58
2023/09/09 00:55:14;;;;;;;9.88;7.28;;;410.30;2355.20;;;;;;5088152;28;20032;-58
2023/09/09 00:57:40;;;;;;;9.32;6.93;;;410.30;2355.20;;;;;;5088809;28;20101;-58
2023/09/09 01:00:09;;;;;;;7.85;6.57;;;410.30;2355.20;;;;;;5088216;28;20032;-58
2023/09/09 01:02:39;;;;;;;9.38;6.80;;;410.30;2355.20;;;;;;5088249;28;20110;-58
2023/09/09 01:05:07;;;;;;;7.65;5.97;;;410.30;2355.20;;;;;;5089027;28;20055;-58
2023/09/09 01:07:46;;;;;;;10.23;7.60;;;410.30;2355.20;;;;;;5088470;28;20073;-59
2023/09/09 01:10:13;;;;;;;10.43;7.15;;;410.20;2355.20;;;;;;5088681;28;20016;-59
2023/09/09 01:12:39;;;;;;;10.52;7.35;;;410.40;2355.20;;;;;;5088586;28;20074;-58
2023/09/09 01:15:06;;;;;;;7.50;6.47;;;410.30;2355.20;;;;;;5088669;28;20468;-58
2023/09/09 01:17:34;;;;;;;10.73;7.30;;;410.30;2355.20;;;;;;5088176;28;20124;-59
2023/09/09 01:20:02;;;;;;;9.88;6.70;;;410.20;2355.20;;;;;;5088543;28;20370;-59
2023/09/09 01:22:33;;;;;;;9.20;6.07;;;410.30;2355.20;;;;;;5088572;28;20378;-58
2023/09/09 01:25:00;;;;;;;10.55;7.20;;;410.20;2355.20;;;;;;5088588;28;20363;-58
2023/09/09 01:27:25;;;;;;;7.82;6.25;;;410.20;2355.20;;;;;;5088418;28;20024;-58
2023/09/09 01:29:51;;;;;;;9.00;6.72;;;410.20;2355.20;;;;;;5088547;28;20024;-58
2023/09/09 01:32:17;;;;;;;9.85;7.10;;;410.10;2355.20;;;;;;5088667;28;20069;-58
2023/09/09 01:34:42;;;;;;;8.55;7.20;;;410.10;2355.20;;;;;;5088272;28;20107;-58
2023/09/09 01:37:08;;;;;;;8.80;7.63;;;410.20;2355.20;;;;;;5088579;28;20157;-58
2023/09/09 01:39:34;;;;;;;9.98;7.53;;;410.10;2355.20;;;;;;5091184;28;20032;-59
2023/09/09 01:42:00;;;;;;;9.75;6.60;;;410.00;2355.20;;;;;;5091930;28;20071;-59
2023/09/09 01:44:25;;;;;;;9.88;6.53;;;410.10;2355.20;;;;;;5092095;28;20035;-58
2023/09/09 01:46:51;;;;;;;8.32;6.38;;;410.10;2355.20;;;;;;5091835;28;20055;-59
2023/09/09 01:49:17;;;;;;;8.88;7.25;;;410.00;2355.20;;;;;;5091762;28;20024;-58
2023/09/09 01:51:43;;;;;;;11.00;7.90;;;410.00;2355.20;;;;;;5088746;28;20388;-59
2023/09/09 01:54:09;;;;;;;11.65;8.52;;;410.10;2355.20;;;;;;5082001;28;20946;-58
2023/09/09 01:56:35;;;;;;;9.52;7.28;;;410.10;2355.20;;;;;;5091611;28;20024;-58
2023/09/09 01:59:00;;;;;;;9.18;6.70;;;410.10;2355.20;;;;;;5091602;28;20046;-59
2023/09/09 02:01:26;;;;;;;10.43;6.90;;;410.00;2355.20;;;;;;5091738;28;20107;-58
2023/09/09 02:03:52;;;;;;;9.65;6.68;;;410.00;2355.20;;;;;;5091352;28;20036;-58
2023/09/09 02:06:18;;;;;;;10.90;7.28;;;410.00;2355.20;;;;;;5091297;28;20533;-58
2023/09/09 02:08:43;;;;;;;8.85;7.03;;;409.90;2355.20;;;;;;5089500;28;20115;-58
2023/09/09 02:11:09;;;;;;;10.55;7.18;;;409.90;2355.20;;;;;;5091143;28;20067;-58
2023/09/09 02:13:35;;;;;;;9.32;7.03;;;409.90;2355.20;;;;;;5090900;28;20368;-58
2023/09/09 02:16:07;;;;;;;7.75;6.93;;;409.90;2355.20;;;;;;5090884;28;20393;-59
2023/09/09 02:18:37;;;;;;;10.60;7.60;;;409.90;2355.20;;;;;;5091439;28;20028;-58
2023/09/09 02:21:04;;;;;;;10.93;7.35;;;409.80;2355.20;;;;;;5090670;28;20012;-58
2023/09/09 02:23:29;;;;;;;8.75;6.70;;;409.80;2355.20;;;;;;5090771;28;20081;-59
2023/09/09 02:25:56;;;;;;;8.43;6.40;;;409.80;2355.20;;;;;;5090586;28;20008;-58
2023/09/09 02:28:22;;;;;;;9.90;6.80;;;409.70;2355.20;;;;;;5090837;28;20420;-59
2023/09/09 02:30:48;;;;;;;10.73;7.32;;;409.70;2355.20;;;;;;5090807;28;20016;-59
2023/09/09 02:33:14;;;;;;;9.90;7.22;;;409.70;2355.20;;;;;;5091125;28;20027;-58
2023/09/09 02:35:43;;;;;;;15.18;7.65;;;409.70;2355.20;;;;;;5090629;28;20452;-59
2023/09/09 02:38:09;;;;;;;9.60;7.28;;;409.60;2355.20;;;;;;5091159;28;20035;-58
2023/09/09 02:40:35;;;;;;;10.50;6.90;;;409.60;2355.20;;;;;;5090417;28;20521;-58
2023/09/09 02:43:00;;;;;;;8.98;6.80;;;409.60;2355.20;;;;;;5090461;28;20040;-59
2023/09/09 02:45:26;;;;;;;12.43;7.40;;;409.60;2355.20;;;;;;5090344;28;20019;-58
2023/09/09 02:47:52;;;;;;;11.10;7.43;;;409.60;2355.20;;;;;;5089905;28;20023;-58
2023/09/09 02:50:18;;;;;;;9.20;6.13;;;409.70;2355.20;;;;;;5090046;28;20024;-59
2023/09/09 02:52:44;;;;;;;9.70;6.00;;;409.70;2355.20;;;;;;5090136;28;20026;-58
2023/09/09 02:55:09;;;;;;;9.80;6.60;;;409.70;2355.20;;;;;;5090425;28;20653;-59
2023/09/09 02:57:35;;;;;;;10.27;7.40;;;409.70;2355.20;;;;;;5090668;28;20026;-58
2023/09/09 03:00:01;;;;;;;9.02;7.00;;;409.60;2355.20;;;;;;5089605;28;20045;-58
2023/09/09 03:02:27;;;;;;;11.10;8.23;;;409.70;2355.20;;;;;;5088908;28;20032;-58
2023/09/09 03:04:52;;;;;;;12.55;7.25;;;409.70;2355.20;;;;;;5089711;28;20032;-58
2023/09/09 03:07:19;;;;;;;9.85;7.53;;;409.70;2355.20;;;;;;5090286;28;20065;-58
2023/09/09 03:09:45;;;;;;;8.02;6.82;;;409.60;2355.20;;;;;;5090028;28;20490;-58
2023/09/09 03:12:11;;;;;;;8.88;7.35;;;409.60;2355.20;;;;;;5089960;28;20127;-58
2023/09/09 03:14:37;;;;;;;12.80;7.18;;;409.60;2355.20;;;;;;5089968;28;20134;-59
2023/09/09 03:17:02;;;;;;;9.65;8.13;;;409.60;2355.20;;;;;;5090259;28;20053;-58
2023/09/09 03:19:28;;;;;;;8.70;7.40;;;384.90;2329.60;;;;;;5076701;28;20390;-58
2023/09/09 03:21:54;;;;;;;12.32;7.28;;;384.90;2329.60;;;;;;5089764;28;20056;-58
2023/09/09 03:24:20;;;;;;;9.73;7.32;;;384.70;2329.60;;;;;;5089615;28;20036;-59
2023/09/09 03:26:46;;;;;;;8.60;7.70;;;384.70;2329.60;;;;;;5089989;28;20473;-59
2023/09/09 03:29:11;;;;;;;7.47;6.57;;;384.70;2329.60;;;;;;5089638;28;20052;-59
2023/09/09 03:31:37;;;;;;;9.05;7.28;;;384.90;2329.60;;;;;;5089938;28;20024;-58
2023/09/09 03:34:03;;;;;;;8.25;7.00;;;384.90;2329.60;;;;;;5089206;28;20058;-58
2023/09/09 03:36:29;;;;;;;10.18;8.07;;;384.90;2329.60;;;;;;5089735;28;20126;-59
2023/09/09 03:38:54;;;;;;;7.97;7.10;;;384.90;2329.60;;;;;;5089909;28;20107;-58
2023/09/09 03:41:20;;;;;;;9.65;7.75;;;384.80;2329.60;;;;;;5089198;28;20038;-58
2023/09/09 03:43:46;;;;;;;7.85;6.55;;;384.70;2329.60;;;;;;5089489;28;20077;-59
2023/09/09 03:46:12;;;;;;;10.98;7.28;;;384.70;2329.60;;;;;;5089177;28;20020;-59
2023/09/09 03:48:37;;;;;;;9.85;8.02;;;384.60;2329.60;;;;;;5089286;28;20099;-58
2023/09/09 03:51:03;;;;;;;8.40;6.93;;;384.70;2329.60;;;;;;5089187;28;20024;-58
2023/09/09 03:53:29;;;;;;;9.20;7.43;;;384.70;2329.60;;;;;;5088798;28;20056;-59
2023/09/09 03:55:55;;;;;;;9.07;7.18;;;384.60;2329.60;;;;;;5089709;28;20020;-58
2023/09/09 03:58:21;;;;;;;9.48;7.65;;;384.60;2329.60;;;;;;5089269;28;20526;-59
2023/09/09 04:00:47;;;;;;;9.23;7.65;;;384.40;2329.60;;;;;;5075878;28;20034;-58
2023/09/09 04:03:13;;;;;;;8.32;6.88;;;384.40;2329.60;;;;;;5086715;28;20684;-58
2023/09/09 04:05:40;;;;;;;10.63;7.88;;;384.40;2329.60;;;;;;5089121;28;20024;-59
2023/09/09 04:08:09;;;;;;;9.10;7.18;;;384.40;2329.60;;;;;;5087632;28;20020;-58
2023/09/09 04:10:35;;;;;;;9.40;7.57;;;384.40;2329.60;;;;;;5089338;28;20035;-58
2023/09/09 04:13:01;;;;;;;11.93;7.50;;;384.40;2329.60;;;;;;5088484;28;20035;-58
2023/09/09 04:15:27;;;;;;;10.48;7.80;;;384.40;2329.60;;;;;;5089344;28;20035;-58
2023/09/09 04:17:53;;;;;;;9.63;6.85;;;384.40;2329.60;;;;;;5088612;28;20024;-58
2023/09/09 04:20:18;;;;;;;9.45;7.38;;;384.40;2329.60;;;;;;5089090;28;20572;-58
2023/09/09 04:22:44;;;;;;;10.60;6.97;;;384.40;2329.60;;;;;;5088463;28;20050;-58
2023/09/09 04:25:10;;;;;;;10.35;8.50;;;384.50;2329.60;;;;;;5088658;28;20461;-59
2023/09/09 04:27:35;;;;;;;9.38;7.70;;;384.40;2329.60;;;;;;5089046;28;20020;-57
2023/09/09 04:30:01;;;;;;;17.30;8.35;;;384.60;2329.60;;;;;;5088621;28;20529;-58
2023/09/09 04:32:31;;;;;;;11.18;8.80;;;384.70;2329.60;;;;;;5087886;28;20017;-58
2023/09/09 04:34:57;;;;;;;11.70;8.07;;;384.70;2329.60;;;;;;5088684;28;20379;-58
2023/09/09 04:37:24;;;;;;;10.13;7.57;;;409.60;2355.20;;;;;;5088747;28;20036;-58
2023/09/09 04:39:50;;;;;;;12.35;7.53;;;409.60;2355.20;;;;;;5088636;28;20034;-59
2023/09/09 04:42:17;;;;;;;10.98;7.95;;;409.70;2355.20;;;;;;5088674;28;20020;-58
2023/09/09 04:44:42;;;;;;;16.83;7.47;;;409.70;2355.20;;;;;;5088669;28;20374;-58
2023/09/09 04:47:08;;;;;;;10.25;7.53;;;409.70;2355.20;;;;;;5088886;28;20040;-58
2023/09/09 04:49:34;;;;;;;11.50;8.10;;;409.70;2355.20;;;;;;5088661;28;20498;-58
2023/09/09 04:52:00;;;;;;;9.65;6.65;;;409.70;2355.20;;;;;;5088253;28;20097;-59
2023/09/09 04:54:25;;;;;;;9.45;7.50;;;409.80;2355.20;;;;;;5088748;28;20033;-59
2023/09/09 04:56:51;;;;;;;9.52;7.80;;;409.90;2355.20;;;;;;5088149;28;20031;-58
2023/09/09 04:59:17;;;;;;;9.27;7.28;;;409.90;2355.20;;;;;;5088731;28;20036;-58
2023/09/09 05:01:42;;;;;;;13.05;8.07;;;410.10;2355.20;;;;;;5088044;28;20477;-58
2023/09/09 05:04:08;;;;;;;10.88;6.78;;;410.30;2355.20;;;;;;5088353;28;20166;-58
2023/09/09 05:06:34;;;;;;;8.13;7.32;;;410.40;2355.20;;;;;;5088630;28;20031;-58
2023/09/09 05:09:00;;;;;;;9.23;6.78;;;435.20;2355.20;;;;;;5088759;28;20020;-59
2023/09/09 05:11:25;;;;;;;8.02;6.93;;;435.60;2355.20;;;;;;5088459;28;20063;-58
2023/09/09 05:13:51;;;;;;;10.18;7.13;;;435.90;2355.20;;;;;;5091907;28;20032;-58
2023/09/09 05:16:17;;;;;;;12.32;7.15;;;436.00;2355.20;;;;;;5092102;28;20078;-60
2023/09/09 05:18:43;;;;;;;8.63;7.18;;;460.90;2380.80;;;;;;5090666;28;20020;-60
2023/09/09 05:21:08;;;;;;;12.82;7.20;;;461.10;2380.80;;;;;;5091961;28;20631;-60
2023/09/09 05:23:35;;;;;;;9.57;7.07;;;461.10;2380.80;;;;;;5090694;28;20101;-60
2023/09/09 05:26:01;;;;;;;10.65;7.55;;;461.30;2380.80;;;;;;5076465;28;20039;-60
2023/09/09 05:28:27;;;;;;;9.32;6.50;;;461.40;2380.80;;;;;;5092112;28;20053;-60
2023/09/09 05:30:53;;;;;;;9.23;7.13;;;461.40;2380.80;;;;;;5091659;28;20024;-60
2023/09/09 05:33:18;;;;;;;9.60;6.70;;;461.50;2380.80;;;;;;5091820;28;20115;-61
2023/09/09 05:35:44;;;;;;;8.45;6.38;;;461.70;2380.80;;;;;;5079320;28;20102;-60
2023/09/09 05:38:10;;;;;;;10.55;6.80;;;486.80;2380.80;;;;;;5077517;28;20024;-61
2023/09/09 05:40:36;;;;;;;9.40;6.80;;;512.00;2380.80;;;;;;5091841;28;20550;-60
2023/09/09 05:43:01;;;;;;;9.05;6.80;;;512.20;2380.80;;;;;;5091817;28;20024;-61
2023/09/09 05:45:27;;;;;;;8.65;6.65;;;512.50;2380.80;;;;;;5091971;28;20086;-60
2023/09/09 05:47:53;;;;;;;8.32;6.57;;;512.20;2380.80;;;;;;5091720;28;20016;-60
2023/09/09 05:50:20;;;;;;;8.85;6.63;;;512.10;2380.80;;;;;;5091883;28;20036;-61
2023/09/09 05:52:46;;;;;;;8.63;6.38;;;512.20;2380.80;;;;;;5091055;28;20020;-60
2023/09/09 05:55:11;;;;;;;7.25;6.43;;;512.20;2380.80;;;;;;5091499;28;20028;-60
2023/09/09 05:57:39;;;;;;;8.38;6.72;;;512.00;2380.80;;;;;;5078161;28;20020;-61
2023/09/09 06:00:05;;;;;;;10.32;6.70;;;538.10;2406.40;;;;;;5091575;28;20419;-59
2023/09/09 06:02:31;;;;;;;11.52;7.32;;;589.30;2432.00;;;;;;5091048;28;20016;-61
2023/09/09 06:04:57;;;;;;;8.13;7.32;;;665.90;2304.00;;;;;;5091262;28;20039;-61
2023/09/09 06:07:23;;;;;;;8.77;7.57;;;716.90;2099.20;;;;;;5091017;28;20493;-61
2023/09/09 06:09:49;;;;;;;9.38;7.10;;;742.80;1971.20;;;;;;5091693;28;20103;-61
2023/09/09 06:12:14;;;;;;;8.88;7.97;;;768.10;1894.40;;;;;;5091279;28;20403;-60
2023/09/09 06:14:40;;;;;;;9.20;8.10;;;793.70;1817.60;;;;;;5091172;28;20051;-61
2023/09/09 06:17:06;;;;;;;11.77;7.80;;;794.30;1740.80;;;;;;5091524;28;20078;-60
2023/09/09 06:19:32;;;;;;;12.20;7.60;;;845.40;1638.40;;;;;;5090648;28;20512;-61
2023/09/09 06:21:57;;;;;;;10.77;8.15;;;845.70;1587.20;;;;;;5091091;28;20024;-64
2023/09/09 06:24:23;;;;;;;8.40;7.57;;;819.80;1638.40;;;;;;5089961;28;20073;-63
2023/09/09 06:26:49;;;;;;;10.45;9.38;;;820.10;1612.80;;;;;;5091709;28;20095;-64
2023/09/09 06:29:15;;;;;;;8.63;7.82;;;845.10;1612.80;;;;;;5091537;28;20027;-63
2023/09/09 06:31:41;;;;;;;8.77;7.88;;;820.00;1612.80;;;;;;5079623;28;20370;-63
2023/09/09 06:34:09;;;;;;;8.85;8.10;;;820.10;1587.20;;;;;;5089427;28;20103;-63
2023/09/09 06:36:35;;;;;;;10.80;7.97;;;820.10;1612.80;;;;;;5091098;28;20478;-62
2023/09/09 06:39:00;;;;;;;9.90;7.47;;;845.40;1587.20;;;;;;5090405;28;20119;-63
2023/09/09 06:41:26;;;;;;;11.57;9.30;;;896.50;1484.80;;;;;;5091299;28;20051;-62
2023/09/09 06:43:52;;;;;;;9.30;8.00;;;922.30;1433.60;;;;;;5090327;28;20032;-63
2023/09/09 06:46:18;;;;;;;13.73;8.93;;;948.00;1382.40;;;;;;5091231;28;20060;-63
2023/09/09 06:48:43;;;;;;;11.07;9.82;;;948.10;1356.80;;;;;;5090358;28;20032;-64
2023/09/09 06:51:09;;;;;;;9.98;8.93;;;948.10;1331.20;;;;;;5090920;28;20031;-64
2023/09/09 06:53:35;;;;;;;8.93;8.02;;;972.80;1356.80;;;;;;5090381;28;20474;-62
2023/09/09 06:56:01;;;;;;;10.35;9.43;;;998.60;1331.20;;;;;;5090316;28;20397;-62
2023/09/09 06:58:26;;;;;;;10.75;9.65;;;1024.50;1254.40;;;;;;5090551;28;20086;-62
2023/09/09 07:00:53;;;;;;;37.17;34.42;;;1024.60;1228.80;;;;;;5090228;28;20120;-61
2023/09/09 07:03:21;;;;;;;11.18;10.05;;;1024.10;1254.40;;;;;;5088832;28;20036;-62
2023/09/09 07:05:47;;;;;;;10.23;9.40;;;1024.30;1228.80;;;;;;5090384;28;20016;-62
2023/09/09 07:08:13;;;;;;;10.50;9.13;;;1024.90;1203.20;;;;;;5090239;28;20362;-63
2023/09/09 07:10:38;;;;;;;13.90;10.82;;;973.70;1254.40;;;;;;5090570;28;20028;-64
2023/09/09 07:13:04;;;;;;;11.90;10.77;;;1049.70;1228.80;;;;;;5090015;28;20046;-64
2023/09/09 07:15:30;;;;;;;13.13;11.95;;;1024.70;1177.60;;;;;;5090264;28;20024;-65
2023/09/09 07:17:56;;;;;;;15.30;14.00;;;1024.90;1177.60;;;;;;5090106;28;20020;-64
2023/09/09 07:20:22;;;;;;;16.20;14.48;;;1075.90;1126.40;;;;;;5090008;28;20028;-65
2023/09/09 07:22:47;;;;;;;16.05;13.50;;;1024.70;1177.60;;;;;;5089899;28;20028;-65
2023/09/09 07:25:13;;;;;;;14.27;12.90;;;1076.10;1126.40;;;;;;5089874;28;20488;-65
2023/09/09 07:27:39;;;;;;;15.10;13.52;;;1075.70;1126.40;;;;;;5089592;28;20024;-64
2023/09/09 07:30:06;;;;;;;11.52;10.48;;;998.90;1228.80;;;;;;5078168;28;20060;-62
2023/09/09 07:32:32;;;;;;;14.93;12.00;;;1075.60;1126.40;;;;;;5088033;28;20416;-64
2023/09/09 07:35:01;;;;;;;11.77;10.75;;;1024.30;1177.60;;;;;;5089749;28;20454;-63
2023/09/09 07:37:27;;;;;;;12.88;11.88;;;1024.60;1177.60;;;;;;5089619;28;20194;-62
2023/09/09 07:39:52;;;;;;;12.60;10.50;;;1049.80;1177.60;;;;;;5089711;28;20487;-63
2023/09/09 07:42:18;;;;;;;13.07;11.82;;;1075.70;1126.40;;;;;;5089784;28;20074;-63
2023/09/09 07:44:45;;;;;;;13.60;12.45;;;1101.60;1075.20;;;;;;5090106;28;20340;-63
2023/09/09 07:47:11;;;;;;;13.32;12.00;;;1050.10;1152.00;;;;;;5088987;28;20016;-62
2023/09/09 07:49:37;;;;;;;13.10;11.95;;;1049.90;1152.00;;;;;;5082370;28;20375;-66
2023/09/09 07:52:04;;;;;;;13.18;12.18;;;1075.50;1100.80;;;;;;5068923;28;20025;-66
2023/09/09 07:54:30;;;;;;;12.13;11.07;;;999.20;1177.60;;;;;;5076243;28;20028;-64
2023/09/09 07:56:58;;;;;;;14.05;12.68;;;1024.10;1177.60;;;;;;5089493;28;20095;-62
2023/09/09 07:59:31;;;;;;;12.38;11.45;;;1049.70;1177.60;;;;;;5089300;28;20492;-62
2023/09/09 08:01:57;;;;;;;13.98;12.57;;;1075.60;1100.80;;;;;;5056841;28;20021;-59
2023/09/09 08:04:23;;;;;;;12.95;12.02;;;998.80;1203.20;;;;;;5068767;28;20036;-63
2023/09/09 08:06:52;;;;;;;12.52;11.52;;;1024.10;1177.60;;;;;;5069220;28;20146;-64
2023/09/09 08:09:21;;;;;;;11.93;10.93;;;1100.80;1100.80;;;;;;5069238;28;20028;-63
2023/09/09 08:11:47;;;;;;;12.52;11.45;;;1049.70;1152.00;;;;;;5078319;28;20097;-64
2023/09/09 08:14:13;;;;;;;13.52;12.25;;;999.20;1177.60;;;;;;5087404;28;20114;-63
2023/09/09 08:16:41;;;;;;;13.65;12.20;;;998.90;1177.60;;;;;;5077169;28;20044;-64
2023/09/09 08:19:07;;;;;;;12.32;11.23;;;973.00;1228.80;;;;;;5089043;28;20020;-63
2023/09/09 08:21:32;;;;;;;12.95;11.48;;;998.90;1203.20;;;;;;5088686;28;20432;-62
2023/09/09 08:24:01;;;;;;;12.25;11.07;;;1049.70;1177.60;;;;;;5088814;28;20387;-63
2023/09/09 08:26:28;;;;;;;13.32;12.20;;;1050.30;1152.00;;;;;;5080024;28;20028;-63
2023/09/09 08:28:54;;;;;;;12.90;11.63;;;1075.80;1100.80;;;;;;5080859;28;20068;-64
2023/09/09 08:31:21;;;;;;;12.32;11.15;;;1024.30;1152.00;;;;;;5087581;28;20066;-63
2023/09/09 08:33:46;;;;;;;12.93;11.38;;;1024.30;1177.60;;;;;;5087361;28;20028;-64
2023/09/09 08:36:12;;;;;;;12.88;10.77;;;1024.70;1152.00;;;;;;5087170;28;20433;-64
2023/09/09 08:38:38;;;;;;;12.80;11.60;;;1024.50;1152.00;;;;;;5087313;28;20089;-65
2023/09/09 08:41:06;;;;;;;12.10;10.95;;;999.00;1203.20;;;;;;5087278;28;20028;-65
2023/09/09 08:44:00;;;;;;;12.15;11.10;;;998.60;1203.20;;;;;;5077127;28;20046;-64
2023/09/09 08:46:25;;;;;;;11.25;10.30;;;973.60;1203.20;;;;;;5087279;28;20020;-64
2023/09/09 08:48:52;;;;;;;13.30;10.48;;;972.80;1254.40;;;;;;5090587;28;20027;-64
2023/09/09 08:51:20;;;;;;;12.38;11.05;;;;;;;;;;5091263;28;20469;-63
2023/09/09 08:53:47;;;;;;;12.05;8.55;;;896.60;1305.60;;;;;;5091458;28;20036;-63
2023/09/09 08:56:13;;;;;;;16.58;8.20;;;870.70;1382.40;;;;;;5090574;28;20541;-62
2023/09/09 08:58:40;;;;;;;9.73;7.28;;;845.20;1408.00;;;;;;5091257;28;20107;-67
2023/09/09 09:01:06;;;;;;;7.70;5.75;;;794.20;1459.20;;;;;;5091543;28;20048;-63
2023/09/09 09:03:33;;;;;;;8.63;7.00;;;793.70;1484.80;;;;;;5090886;28;20074;-62
2023/09/09 09:06:04;;;;;;;9.48;6.95;;;794.00;1484.80;;;;;;5091249;28;20020;-63
2023/09/09 09:08:31;;;;;;;12.15;6.25;;;794.00;1510.40;;;;;;5090431;28;20424;-64
2023/09/09 09:10:58;;;;;;;11.65;6.90;;;768.60;1536.00;;;;;;5090362;28;20142;-62
2023/09/09 09:13:24;;;;;;;7.65;5.95;;;768.10;1536.00;;;;;;5091731;28;20092;-62
2023/09/09 09:15:50;;;;;;;15.20;7.03;;;768.70;1510.40;;;;;;5072421;28;20048;-62
2023/09/09 09:18:16;;;;;;;7.75;6.15;;;793.60;1561.60;;;;;;5071841;28;20463;-63
2023/09/09 09:20:42;;;;;;;13.05;6.82;;;768.70;1510.40;;;;;;5091263;28;20084;-62
2023/09/09 09:23:12;;;;;;;7.20;6.38;;;768.40;1536.00;;;;;;5092178;28;20028;-62
2023/09/09 09:25:44;;;;;;;11.98;6.70;;;768.40;1510.40;;;;;;5092320;28;20036;-63
2023/09/09 09:28:11;;;;;;;11.60;6.90;;;768.40;1510.40;;;;;;5092169;28;20016;-60
2023/09/09 09:30:37;;;;;;;11.23;6.38;;;768.80;1510.40;;;;;;5092452;28;20422;-62
2023/09/09 09:33:03;;;;;;;8.73;7.50;;;768.60;1536.00;;;;;;5091405;28;20158;-62
2023/09/09 09:35:30;;;;;;;11.63;6.85;;;768.00;1561.60;;;;;;5092257;28;20069;-64
2023/09/09 09:38:00;;;;;;;7.20;6.50;;;743.10;1587.20;;;;;;5091629;28;20020;-61
2023/09/09 09:40:27;;;;;;;9.27;7.22;;;768.00;1561.60;;;;;;5092340;28;20027;-62
2023/09/09 09:42:53;;;;;;;9.77;6.53;;;768.50;1536.00;;;;;;5089961;28;20111;-62
2023/09/09 09:45:26;;;;;;;10.60;6.95;;;768.40;1561.60;;;;;;5079648;28;20109;-63
2023/09/09 09:47:52;;;;;;;11.52;8.25;;;742.90;1612.80;;;;;;5091798;28;20042;-62
2023/09/09 09:50:22;;;;;;;9.88;6.25;;;743.10;1587.20;;;;;;5092154;28;20020;-63
2023/09/09 09:52:59;;;;;;;9.38;6.93;;;742.70;1587.20;;;;;;5091740;28;20024;-62
2023/09/09 09:55:26;;;;;;;11.18;6.40;;;743.30;1561.60;;;;;;5077856;28;20028;-62
2023/09/09 09:57:55;;;;;;;13.18;6.53;;;742.90;1587.20;;;;;;5091537;28;20111;-62
2023/09/09 10:00:21;;;;;;;12.18;6.10;;;743.00;1587.20;;;;;;5090086;28;20026;-60
2023/09/09 10:02:52;;;;;;;10.23;6.47;;;768.10;1536.00;;;;;;5091185;28;20016;-61
2023/09/09 10:05:21;;;;;;;11.18;7.00;;;768.00;1561.60;;;;;;5091853;28;20081;-61
2023/09/09 10:07:51;;;;;;;12.30;6.32;;;743.10;1587.20;;;;;;5089532;28;20028;-62
2023/09/09 10:10:21;;;;;;;11.55;6.43;;;743.10;1587.20;;;;;;5091284;28;20051;-61
2023/09/09 10:13:03;;;;;;;7.63;6.72;;;743.10;1587.20;;;;;;5091374;28;20040;-61
2023/09/09 10:15:31;;;;;;;9.18;6.15;;;742.90;1612.80;;;;;;5091619;28;20028;-63
2023/09/09 10:17:59;;;;;;;6.40;5.75;;;743.20;1587.20;;;;;;5077739;28;20070;-61
2023/09/09 10:20:26;;;;;;;11.63;5.85;;;742.90;1536.00;;;;;;5091459;28;20024;-61
2023/09/09 10:22:59;;;;;;;8.27;6.22;;;743.20;1536.00;;;;;;5089180;28;20020;-62
2023/09/09 10:25:31;;;;;;;10.35;5.43;;;743.00;1510.40;;;;;;5077263;28;20386;-61
2023/09/09 10:27:58;;;;;;;7.72;5.07;;;743.20;1510.40;;;;;;5091285;28;20419;-61
2023/09/09 10:30:25;;;;;;;10.73;6.25;;;743.30;1459.20;;;;;;5090980;28;20020;-61
2023/09/09 10:32:53;;;;;;;7.85;6.10;;;743.30;1459.20;;;;;;5090705;28;20028;-61
2023/09/09 10:35:20;;;;;;;6.60;5.50;;;768.10;1459.20;;;;;;5090959;28;20031;-60
2023/09/09 10:37:47;;;;;;;9.45;5.90;;;743.20;1484.80;;;;;;5091077;28;20031;-62
2023/09/09 10:40:14;;;;;;;5.53;5.00;;;768.00;1459.20;;;;;;5090951;28;20167;-60
2023/09/09 10:42:42;;;;;;;8.55;5.88;;;768.00;1484.80;;;;;;5091219;28;20758;-60
2023/09/09 10:45:28;;;;;;;7.95;4.60;;;768.10;1459.20;;;;;;5090516;28;20032;-60
2023/09/09 10:48:05;;;;;;;5.95;4.72;;;768.00;1382.40;;;;;;5090209;28;20027;-60
2023/09/09 10:50:41;;;;;;;8.77;5.40;;;768.10;1408.00;;;;;;5090523;28;20024;-61
2023/09/09 10:53:22;;;;;;;7.10;5.05;;;768.40;1433.60;;;;;;5090281;28;20523;-61
2023/09/09 10:55:51;;;;;;;5.88;4.82;;;768.40;1382.40;;;;;;5090702;28;20067;-61
2023/09/09 10:58:19;;;;;;;10.40;5.40;;;768.40;1408.00;;;;;;5090957;28;20028;-63
2023/09/09 11:00:47;;;;;;;7.03;5.13;;;768.10;1382.40;;;;;;5090289;28;20031;-61
2023/09/09 11:03:20;;;;;;;9.35;5.43;;;743.30;1408.00;;;;;;5090361;28;20078;-61
2023/09/09 11:06:18;;;;;;;7.68;4.80;;;743.30;1408.00;;;;;;5090589;28;20028;-61
2023/09/09 11:08:46;;;;;;;5.35;4.55;;;743.20;1433.60;;;;;;5090087;28;20028;-64
2023/09/09 11:11:23;;;;;;;10.52;5.85;;;742.90;1433.60;;;;;;5063533;28;20083;-61
2023/09/09 11:13:50;;;;;;;7.75;5.70;;;743.10;1459.20;;;;;;5090289;28;20032;-63
2023/09/09 11:16:27;;;;;;;8.68;4.88;;;743.20;1459.20;;;;;;5090572;28;20024;-61
2023/09/09 11:18:53;;;;;;;10.23;5.10;;;742.90;1459.20;;;;;;5090008;28;20047;-62
2023/09/09 11:21:23;;;;;;;14.60;5.57;;;742.90;1433.60;;;;;;5057256;28;20033;-61
2023/09/09 11:23:51;;;;;;;7.78;5.40;;;743.30;1433.60;;;;;;5082449;28;20490;-61
2023/09/09 11:26:17;;;;;;;9.05;5.55;;;743.30;1433.60;;;;;;5089462;28;20035;-61
2023/09/09 11:28:47;;;;;;;8.82;5.07;;;743.20;1408.00;;;;;;5089971;28;20107;-61
2023/09/09 11:31:17;;;;;;;7.25;4.55;;;768.10;1408.00;;;;;;5064500;28;20021;-62
2023/09/09 11:33:43;;;;;;;7.60;5.45;;;768.10;1408.00;;;;;;5086825;28;20675;-62
2023/09/09 11:36:10;;;;;;;8.95;5.78;;;768.00;1408.00;;;;;;5088886;28;20192;-64
2023/09/09 11:38:39;;;;;;;6.50;4.95;;;768.20;1408.00;;;;;;5074972;28;20489;-61
2023/09/09 11:41:06;;;;;;;6.22;5.20;;;768.40;1408.00;;;;;;5088114;28;20054;-62
2023/09/09 11:43:32;;;;;;;9.13;6.85;;;768.30;1408.00;;;;;;5087895;28;20035;-62
2023/09/09 11:45:58;;;;;;;8.20;6.10;;;768.30;1433.60;;;;;;5087813;28;20023;-62
2023/09/09 11:48:24;;;;;;;7.13;5.90;;;768.10;1433.60;;;;;;5079289;28;20115;-62
2023/09/09 11:50:51;;;;;;;7.68;5.57;;;743.10;1459.20;;;;;;5081440;28;20132;-61
2023/09/09 11:53:20;;;;;;;8.85;6.43;;;742.80;1433.60;;;;;;5076298;28;20031;-62
2023/09/09 11:55:51;;;;;;;13.23;6.30;;;743.10;1433.60;;;;;;5088105;28;20032;-62
2023/09/09 11:58:16;;;;;;;11.50;5.88;;;743.10;1408.00;;;;;;5087946;28;20067;-62
2023/09/09 12:00:42;;;;;;;7.97;5.82;;;743.00;1408.00;;;;;;5088147;28;20467;-61
2023/09/09 12:03:08;;;;;;;8.90;5.55;;;743.10;1382.40;;;;;;5078068;28;20032;-61
2023/09/09 12:05:33;;;;;;;8.02;5.68;;;743.10;1382.40;;;;;;5084029;28;20027;-61
2023/09/09 12:08:01;;;;;;;6.40;5.40;;;743.10;1408.00;;;;;;5086545;28;20046;-61
2023/09/09 12:10:33;;;;;;;7.03;5.55;;;743.10;1408.00;;;;;;5086496;28;20036;-63